Time;durP1;ratioP1;P1;durP2;ratioP2;P2;SDS_P1;SDS_P2;PMS_P1;PMS_P2;Temp;Humidity;BMP_temperature;BMP_pressure;BME280_temperature;BME280_humidity;BME280_pressure;Samples;Min_cycle;Max_cycle;Signal;HPM_P1;HPM_P2
2023/01/26 00:01:15;;;;;;;37.55;17.50;;;;;;;-3.34;100.00;101820.91;5094665;28;20067;-68
2023/01/26 00:03:42;;;;;;;37.75;17.92;;;;;;;-3.27;100.00;101811.09;5092473;28;20468;-69
2023/01/26 00:06:12;;;;;;;35.50;18.13;;;;;;;-3.33;100.00;101801.63;5092539;28;20052;-69
2023/01/26 00:08:41;;;;;;;40.75;19.30;;;;;;;-3.29;100.00;101805.03;5094366;28;20040;-70
2023/01/26 00:11:09;;;;;;;42.70;18.48;;;;;;;-3.24;100.00;101800.50;5094200;28;20051;-70
2023/01/26 00:13:36;;;;;;;41.88;19.35;;;;;;;-3.25;100.00;101803.19;5093825;28;20491;-69
2023/01/26 00:16:04;;;;;;;46.20;19.30;;;;;;;-3.34;100.00;101793.81;5093475;28;20071;-70
2023/01/26 00:18:31;;;;;;;46.13;19.83;;;;;;;-3.37;100.00;101789.50;5092993;28;20040;-68
2023/01/26 00:20:59;;;;;;;43.42;20.83;;;;;;;-3.34;100.00;101797.31;5093675;28;20047;-69
2023/01/26 00:23:27;;;;;;;45.47;20.70;;;;;;;-3.25;100.00;101790.06;5093465;28;20052;-69
2023/01/26 00:25:54;;;;;;;37.65;17.48;;;;;;;-3.26;100.00;101786.56;5093526;28;20044;-70
2023/01/26 00:28:21;;;;;;;43.50;18.80;;;;;;;-3.22;100.00;101782.09;5093723;28;20040;-68
2023/01/26 00:30:48;;;;;;;38.85;18.80;;;;;;;-3.19;100.00;101787.25;5094437;28;20079;-68
2023/01/26 00:33:14;;;;;;;41.22;18.50;;;;;;;-3.26;100.00;101772.59;5093699;28;20127;-67
2023/01/26 00:35:44;;;;;;;44.75;20.63;;;;;;;-3.22;100.00;101763.72;5086947;28;20040;-68
2023/01/26 00:38:11;;;;;;;43.08;21.05;;;;;;;-3.18;100.00;101760.94;5073078;28;20059;-68
2023/01/26 00:40:39;;;;;;;45.30;20.75;;;;;;;-3.22;100.00;101768.97;5092070;28;20070;-69
2023/01/26 00:43:06;;;;;;;49.20;20.13;;;;;;;-3.30;100.00;101764.81;5092476;28;20055;-69
2023/01/26 00:45:33;;;;;;;45.97;20.30;;;;;;;-3.26;100.00;101759.47;5092380;28;20127;-70
2023/01/26 00:48:00;;;;;;;46.53;21.40;;;;;;;-3.26;100.00;101757.72;5093390;28;20512;-69
2023/01/26 00:50:27;;;;;;;48.17;21.30;;;;;;;-3.16;100.00;101755.66;5092954;28;20051;-69
2023/01/26 00:52:53;;;;;;;55.88;22.65;;;;;;;-3.29;100.00;101755.16;5092292;28;20052;-69
2023/01/26 00:55:20;;;;;;;52.72;22.27;;;;;;;-3.34;100.00;101752.69;5092132;28;20050;-69
2023/01/26 00:57:48;;;;;;;51.63;24.23;;;;;;;-3.23;100.00;101762.00;5092809;28;20044;-69
2023/01/26 01:00:16;;;;;;;53.30;22.48;;;;;;;-3.16;100.00;101756.53;5092261;28;20048;-68
2023/01/26 01:02:43;;;;;;;51.05;22.55;;;;;;;-3.24;100.00;101747.16;5092487;28;20044;-70
2023/01/26 01:05:10;;;;;;;53.33;22.38;;;;;;;-3.35;100.00;101750.09;5088521;28;20036;-70
2023/01/26 01:07:36;;;;;;;53.80;23.00;;;;;;;-3.28;100.00;101757.72;5090471;28;20055;-69
2023/01/26 01:10:03;;;;;;;54.95;23.60;;;;;;;-3.22;100.00;101748.84;5090689;28;20070;-69
2023/01/26 01:12:29;;;;;;;56.75;23.77;;;;;;;-3.18;100.00;101752.22;5090336;28;20058;-68
2023/01/26 01:14:56;;;;;;;56.35;23.88;;;;;;;-3.20;100.00;101743.56;5090198;28;20050;-68
2023/01/26 01:17:22;;;;;;;63.88;25.67;;;;;;;-3.16;100.00;101746.03;5090066;28;20048;-68
2023/01/26 01:19:49;;;;;;;50.95;23.48;;;;;;;-3.17;100.00;101744.31;5089007;28;20048;-69
2023/01/26 01:22:16;;;;;;;59.30;23.95;;;;;;;-3.23;100.00;101739.25;5090590;28;20040;-69
2023/01/26 01:24:42;;;;;;;55.97;24.63;;;;;;;-3.20;100.00;101738.31;5090450;28;20044;-67
2023/01/26 01:27:09;;;;;;;58.08;24.95;;;;;;;-3.21;100.00;101731.31;5092191;28;20051;-71
2023/01/26 01:29:35;;;;;;;56.92;24.85;;;;;;;-3.18;100.00;101729.44;5089074;28;20046;-69
2023/01/26 01:32:02;;;;;;;53.90;25.25;;;;;;;-3.34;100.00;101726.47;5091810;28;20050;-69
2023/01/26 01:34:29;;;;;;;44.35;20.15;;;;;;;-3.23;100.00;101734.00;5092708;28;20072;-68
2023/01/26 01:36:56;;;;;;;44.72;21.95;;;;;;;-3.20;100.00;101722.56;5092564;28;20105;-67
2023/01/26 01:39:22;;;;;;;48.42;22.73;;;;;;;-3.21;100.00;101726.06;5093523;28;20131;-70
2023/01/26 01:41:49;;;;;;;46.10;21.30;;;;;;;-3.19;100.00;101724.25;5091366;28;20047;-66
2023/01/26 01:44:23;;;;;;;47.10;19.90;;;;;;;-3.26;100.00;101727.97;5092642;28;20106;-65
2023/01/26 01:46:57;;;;;;;49.60;21.80;;;;;;;-3.20;100.00;101720.78;5092212;28;20043;-65
2023/01/26 01:49:30;;;;;;;52.00;21.35;;;;;;;-3.21;100.00;101715.56;5090387;28;20117;-65
2023/01/26 01:52:05;;;;;;;49.25;21.25;;;;;;;-3.23;100.00;101714.78;5090037;28;20070;-66
2023/01/26 01:54:38;;;;;;;54.72;23.05;;;;;;;-3.30;100.00;101717.56;5089874;28;20047;-65
2023/01/26 01:57:16;;;;;;;52.28;23.67;;;;;;;-3.28;100.00;101723.63;5088806;28;20052;-65
2023/01/26 01:59:53;;;;;;;58.13;23.38;;;;;;;-3.26;100.00;101715.72;5088959;28;20546;-65
2023/01/26 02:02:20;;;;;;;45.78;21.45;;;;;;;-3.17;100.00;101710.19;5089687;28;20044;-65
2023/01/26 02:04:46;;;;;;;53.75;22.95;;;;;;;-3.22;100.00;101703.34;5071631;28;20063;-66
2023/01/26 02:07:32;;;;;;;62.97;24.85;;;;;;;-3.27;100.00;101706.13;5090287;28;20127;-65
2023/01/26 02:12:46;;;;;;;50.72;22.70;;;;;;;-3.27;100.00;101695.63;5089875;28;20044;-66
2023/01/26 02:15:13;;;;;;;57.60;23.48;;;;;;;-3.29;100.00;101698.28;5090731;28;20055;-66
2023/01/26 02:17:40;;;;;;;59.50;24.88;;;;;;;-3.27;100.00;101695.63;5079767;28;20052;-65
2023/01/26 02:20:14;;;;;;;57.30;23.65;;;;;;;-3.22;100.00;101698.09;5087592;28;20566;-64
2023/01/26 02:22:49;;;;;;;52.45;21.83;;;;;;;-3.25;100.00;101683.31;5090203;28;20056;-65
2023/01/26 02:25:36;;;;;;;50.35;21.23;;;;;;;-3.27;100.00;101687.78;5089749;28;20491;-65
2023/01/26 02:28:03;;;;;;;48.15;21.83;;;;;;;-3.24;100.00;101674.53;5089432;28;20040;-65
2023/01/26 02:30:31;;;;;;;52.22;22.85;;;;;;;-3.27;100.00;101674.66;5089268;28;20054;-65
2023/01/26 02:32:57;;;;;;;53.30;23.30;;;;;;;-3.28;100.00;101671.13;5089435;28;20126;-65
2023/01/26 02:35:24;;;;;;;52.53;22.77;;;;;;;-3.29;100.00;101661.56;5090612;28;20047;-65
2023/01/26 02:37:50;;;;;;;53.25;22.92;;;;;;;-3.30;100.00;101665.09;5089253;28;20384;-65
2023/01/26 02:40:37;;;;;;;57.08;25.13;;;;;;;-3.32;100.00;101659.03;5087567;28;20059;-65
2023/01/26 02:43:04;;;;;;;58.17;24.25;;;;;;;-3.30;100.00;101651.97;5089013;28;20044;-65
2023/01/26 02:45:32;;;;;;;56.53;25.02;;;;;;;-3.32;100.00;101655.53;5089286;28;20463;-65
2023/01/26 02:48:03;;;;;;;58.40;22.80;;;;;;;-3.32;100.00;101653.78;5091376;28;20074;-65
2023/01/26 02:50:30;;;;;;;39.25;16.67;;;;;;;-3.23;100.00;101644.78;5087943;28;20044;-65
2023/01/26 02:52:58;;;;;;;60.08;24.38;;;;;;;-3.33;100.00;101649.44;5090669;28;20120;-65
2023/01/26 02:55:25;;;;;;;58.05;24.98;;;;;;;-3.25;100.00;101650.97;5091114;28;20040;-65
2023/01/26 02:57:57;;;;;;;58.63;23.50;;;;;;;-3.35;100.00;101647.78;5091220;28;20470;-64
2023/01/26 03:00:27;;;;;;;63.95;25.13;;;;;;;-3.42;100.00;101649.72;5090773;28;20395;-65
2023/01/26 03:02:57;;;;;;;60.97;24.00;;;;;;;-3.36;100.00;101651.31;5091809;28;20046;-65
2023/01/26 03:05:25;;;;;;;60.47;24.10;;;;;;;-3.45;100.00;101648.97;5091403;28;20419;-65
2023/01/26 03:07:52;;;;;;;55.58;23.63;;;;;;;-3.42;100.00;101654.13;5091699;28;20131;-66
2023/01/26 03:10:21;;;;;;;59.67;24.38;;;;;;;-3.40;100.00;101657.56;5091916;28;20131;-66
2023/01/26 03:12:47;;;;;;;61.85;25.00;;;;;;;-3.46;100.00;101653.34;5091780;28;20040;-65
2023/01/26 03:29:08;;;;;;;56.20;21.85;;;;;;;-3.30;100.00;101644.09;5091369;28;20048;-65
2023/01/26 03:31:35;;;;;;;59.63;23.92;;;;;;;-3.40;100.00;101642.69;5092789;28;20066;-65
2023/01/26 03:34:01;;;;;;;54.00;22.27;;;;;;;-3.33;100.00;101644.19;5092180;28;20060;-66
2023/01/26 03:36:28;;;;;;;50.90;22.23;;;;;;;-3.29;100.00;101640.56;5091558;28;20048;-65
2023/01/26 03:38:55;;;;;;;54.38;22.83;;;;;;;-3.32;100.00;101640.66;5091923;28;20048;-65
2023/01/26 03:57:52;;;;;;;40.30;18.65;;;;;;;-3.40;100.00;101640.06;5091001;28;20056;-64
2023/01/26 04:00:20;;;;;;;45.55;19.40;;;;;;;-3.38;100.00;101647.84;5090141;28;20048;-64
2023/01/26 04:08:28;;;;;;;47.92;19.40;;;;;;;-3.35;100.00;101640.75;5092386;28;20130;-65
2023/01/26 04:10:55;;;;;;;49.13;19.42;;;;;;;-3.42;100.00;101636.59;5091892;28;20058;-65
2023/01/26 04:21:39;;;;;;;40.25;16.98;;;;;;;-3.36;100.00;101618.06;5090953;28;20056;-64
2023/01/26 04:24:13;;;;;;;35.95;15.55;;;;;;;-3.35;100.00;101617.13;5091599;28;20066;-65
2023/01/26 04:26:42;;;;;;;42.25;17.65;;;;;;;-3.36;100.00;101607.56;5094026;28;20058;-65
2023/01/26 04:29:11;;;;;;;40.20;17.75;;;;;;;-3.41;100.00;101611.22;5093778;28;20474;-65
2023/01/26 04:31:39;;;;;;;36.20;15.93;;;;;;;-3.34;100.00;101610.16;5093140;28;20048;-65
2023/01/26 04:34:11;;;;;;;36.70;16.02;;;;;;;-3.39;100.00;101607.66;5092527;28;20048;-65
2023/01/26 04:36:38;;;;;;;34.22;15.13;;;;;;;-3.34;100.00;101618.88;5092358;28;20039;-64
2023/01/26 04:39:04;;;;;;;36.20;16.45;;;;;;;-3.36;100.00;101610.19;5093607;28;20120;-64
2023/01/26 04:41:31;;;;;;;41.03;17.85;;;;;;;-3.36;100.00;101625.91;5094378;28;20058;-64
2023/01/26 04:43:58;;;;;;;40.60;17.38;;;;;;;-3.33;100.00;101612.72;5094273;28;20059;-65
2023/01/26 04:46:25;;;;;;;39.83;16.65;;;;;;;-3.28;100.00;101604.69;5092673;28;20048;-65
2023/01/26 04:48:51;;;;;;;40.10;17.80;;;;;;;-3.26;100.00;101607.28;5093254;28;20496;-65
2023/01/26 04:51:20;;;;;;;38.83;17.00;;;;;;;-3.35;100.00;101603.16;5094118;28;20040;-65
2023/01/26 04:53:47;;;;;;;38.65;16.85;;;;;;;-3.41;100.00;101606.88;5094179;28;20122;-65
2023/01/26 04:56:32;;;;;;;40.80;17.60;;;;;;;-3.42;100.00;101602.50;5094655;28;20058;-65
2023/01/26 04:59:03;;;;;;;40.45;17.50;;;;;;;-3.53;100.00;101599.38;5093545;28;20147;-65
2023/01/26 05:01:29;;;;;;;40.95;17.08;;;;;;;-3.54;100.00;101592.41;5094118;28;20465;-64
2023/01/26 05:04:02;;;;;;;41.38;17.33;;;;;;;-3.44;100.00;101588.59;5093726;28;20419;-65
2023/01/26 05:06:29;;;;;;;38.30;17.00;;;;;;;-3.49;100.00;101590.47;5093137;28;21190;-66
2023/01/26 05:08:56;;;;;;;43.72;18.05;;;;;;;-3.53;100.00;101591.50;5094137;28;20043;-64
2023/01/26 05:11:23;;;;;;;46.58;17.92;;;;;;;-3.45;100.00;101586.84;5094280;28;20414;-64
2023/01/26 05:13:50;;;;;;;41.38;17.08;;;;;;;-3.50;100.00;101594.03;5093009;28;20040;-64
2023/01/26 05:16:16;;;;;;;45.03;17.65;;;;;;;-3.40;100.00;101589.34;5092625;28;20560;-65
2023/01/26 05:18:43;;;;;;;41.28;17.67;;;;;;;-3.48;100.00;101586.97;5093661;28;20043;-64
2023/01/26 05:21:10;;;;;;;35.42;16.75;;;;;;;-3.48;100.00;101586.97;5093721;28;20044;-65
2023/01/26 05:23:36;;;;;;;39.10;16.80;;;;;;;-3.44;100.00;101585.13;5093167;28;20040;-65
2023/01/26 05:26:03;;;;;;;44.03;17.85;;;;;;;-3.46;100.00;101587.78;5073719;28;20123;-64
2023/01/26 05:28:30;;;;;;;46.72;18.20;;;;;;;-3.39;100.00;101585.81;5092308;28;20059;-64
2023/01/26 05:30:56;;;;;;;40.97;16.98;;;;;;;-3.35;100.00;101588.28;5091670;28;20048;-65
2023/01/26 05:33:23;;;;;;;43.00;18.10;;;;;;;-3.44;100.00;101587.75;5092499;28;20070;-65
2023/01/26 05:35:50;;;;;;;47.45;18.23;;;;;;;-3.52;100.00;101587.97;5093239;28;20048;-65
2023/01/26 05:38:18;;;;;;;45.63;19.08;;;;;;;-3.59;100.00;101592.53;5093329;28;20048;-65
2023/01/26 05:40:45;;;;;;;41.72;17.08;;;;;;;-3.49;100.00;101585.25;5092819;28;20052;-65
2023/01/26 05:43:12;;;;;;;41.10;17.27;;;;;;;-3.62;100.00;101591.78;5093368;28;20043;-66
2023/01/26 05:45:39;;;;;;;42.42;17.42;;;;;;;-3.49;100.00;101589.63;5093570;28;20406;-64
2023/01/26 05:48:05;;;;;;;41.78;18.30;;;;;;;-3.52;100.00;101587.97;5092972;28;20487;-66
2023/01/26 05:50:32;;;;;;;40.72;17.38;;;;;;;-3.42;100.00;101592.00;5092655;28;20414;-64
2023/01/26 05:52:59;;;;;;;47.28;18.20;;;;;;;-3.44;100.00;101585.97;5092443;28;20059;-65
2023/01/26 05:55:26;;;;;;;40.05;17.33;;;;;;;-3.37;100.00;101597.13;5092612;28;20119;-65
2023/01/26 05:57:52;;;;;;;45.03;17.20;;;;;;;-3.36;100.00;101596.22;5092994;28;20058;-64
2023/01/26 06:00:19;;;;;;;42.70;17.13;;;;;;;-3.44;100.00;101596.47;5092547;28;20028;-65
2023/01/26 06:02:46;;;;;;;47.97;19.33;;;;;;;-3.44;100.00;101596.47;5092619;28;20055;-65
2023/01/26 06:05:14;;;;;;;40.10;16.48;;;;;;;-3.44;100.00;101601.72;5091006;28;20036;-66
2023/01/26 06:07:41;;;;;;;40.30;16.60;;;;;;;-3.52;100.00;101601.06;5091268;28;20135;-65
2023/01/26 06:10:08;;;;;;;43.25;17.42;;;;;;;-3.53;100.00;101609.84;5091740;28;20040;-64
2023/01/26 06:12:37;;;;;;;42.85;17.13;;;;;;;-3.50;100.00;101599.28;5092670;28;20055;-64
2023/01/26 06:15:04;;;;;;;44.30;17.48;;;;;;;-3.48;100.00;101594.84;5091670;28;20404;-64
2023/01/26 06:17:31;;;;;;;42.17;17.60;;;;;;;-3.55;100.00;101598.53;5091735;28;20079;-66
2023/01/26 06:19:57;;;;;;;45.08;19.30;;;;;;;-3.58;100.00;101596.03;5091867;28;20048;-65
2023/01/26 06:22:24;;;;;;;42.33;17.42;;;;;;;-3.57;100.00;101601.22;5092405;28;20514;-66
2023/01/26 06:24:50;;;;;;;45.17;18.30;;;;;;;-3.55;100.00;101607.28;5092338;28;20046;-65
2023/01/26 06:27:17;;;;;;;35.83;16.35;;;;;;;-3.50;100.00;101603.66;5089735;28;20040;-64
2023/01/26 06:29:44;;;;;;;42.35;17.70;;;;;;;-3.61;100.00;101604.84;5089567;28;20066;-66
2023/01/26 06:32:12;;;;;;;36.97;14.80;;;;;;;-3.54;100.00;101609.00;5090853;28;20040;-64
2023/01/26 06:34:39;;;;;;;37.97;16.38;;;;;;;-3.56;100.00;101612.56;5090107;28;20126;-65
2023/01/26 06:37:06;;;;;;;36.47;14.80;;;;;;;-3.39;100.00;101596.31;5089835;28;20722;-65
2023/01/26 06:39:33;;;;;;;30.55;13.73;;;;;;;-3.55;100.00;101606.41;5071107;28;20044;-65
2023/01/26 06:41:59;;;;;;;28.40;13.15;;;;;;;-3.57;100.00;101605.63;5089366;28;20052;-65
2023/01/26 06:44:26;;;;;;;30.20;14.02;;;;;;;-3.48;100.00;101597.47;5090025;28;20060;-65
2023/01/26 06:46:53;;;;;;;35.20;13.38;;;;;;;-3.51;100.00;101602.81;5089538;28;20135;-65
2023/01/26 06:49:19;;;;;;;25.25;13.15;;;;;;;-3.48;100.00;101605.34;5090082;28;20050;-66
2023/01/26 06:51:57;;;;;;;33.70;13.30;;;;;;;-3.48;100.00;101609.69;5089757;28;20047;-65
2023/01/26 06:54:24;;;;;;;26.70;13.48;;;;;;;-3.51;100.00;101610.69;5089679;28;20054;-65
2023/01/26 06:56:50;;;;;;;27.85;12.82;;;;;;;-3.49;100.00;101608.00;5089593;28;20060;-65
2023/01/26 06:59:17;;;;;;;28.92;13.15;;;;;;;-3.53;100.00;101615.09;5089224;28;20044;-65
2023/01/26 07:01:47;;;;;;;35.58;13.48;;;;;;;-3.55;100.00;101607.28;5089694;28;20052;-64
2023/01/26 07:04:15;;;;;;;35.50;15.10;;;;;;;-3.51;100.00;101602.81;5087986;28;20053;-65
2023/01/26 07:06:42;;;;;;;33.75;14.68;;;;;;;-3.56;100.00;101602.09;5090613;28;20058;-65
2023/01/26 07:09:10;;;;;;;27.50;14.60;;;;;;;-3.61;100.00;101609.25;5088200;28;20040;-65
2023/01/26 07:11:36;;;;;;;39.15;14.93;;;;;;;-3.57;100.00;101597.75;5090020;28;20044;-65
2023/01/26 07:14:03;;;;;;;32.50;14.40;;;;;;;-3.58;100.00;101599.53;5088637;28;20056;-64
2023/01/26 07:16:29;;;;;;;35.05;15.90;;;;;;;-3.75;100.00;101603.56;5090205;28;20063;-65
2023/01/26 07:18:59;;;;;;;34.40;15.07;;;;;;;-3.71;100.00;101603.41;5087637;28;20418;-65
2023/01/26 07:21:25;;;;;;;29.77;13.75;;;;;;;-3.73;100.00;101607.84;5088918;28;20095;-65
2023/01/26 07:23:52;;;;;;;34.53;13.27;;;;;;;-3.79;100.00;101611.53;5088112;28;20053;-65
2023/01/26 07:26:19;;;;;;;29.38;12.80;;;;;;;-3.86;100.00;101603.88;5089593;28;20048;-65
2023/01/26 07:28:46;;;;;;;39.33;14.73;;;;;;;-3.88;100.00;101606.56;5054986;28;20139;-67
2023/01/26 07:31:13;;;;;;;26.80;12.20;;;;;;;-3.91;100.00;101613.66;5091384;28;20067;-67
2023/01/26 07:33:39;;;;;;;28.40;13.38;;;;;;;-3.90;100.00;101605.72;5073934;28;20043;-67
2023/01/26 07:36:06;;;;;;;27.95;13.70;;;;;;;-3.91;100.00;101616.25;5089791;28;20075;-66
2023/01/26 07:38:33;;;;;;;27.58;12.93;;;;;;;-3.86;100.00;101611.72;5089888;28;20132;-67
2023/01/26 07:41:05;;;;;;;34.47;14.57;;;;;;;-3.94;100.00;101608.50;5090315;28;20499;-65
2023/01/26 07:43:36;;;;;;;37.65;16.55;;;;;;;-3.90;100.00;101615.34;5092184;28;20051;-65
2023/01/26 07:46:04;;;;;;;38.75;17.58;;;;;;;-3.85;100.00;101610.84;5090695;28;20054;-66
2023/01/26 07:48:31;;;;;;;36.40;16.38;;;;;;;-3.78;100.00;101613.22;5090228;28;20063;-65
2023/01/26 07:50:59;;;;;;;28.70;13.10;;;;;;;-3.88;100.00;101610.94;5091900;28;20406;-66
2023/01/26 07:53:28;;;;;;;32.63;12.88;;;;;;;-3.75;100.00;101614.06;5090621;28;20051;-66
2023/01/26 07:56:09;;;;;;;37.03;14.18;;;;;;;-3.85;100.00;101611.69;5090963;28;20081;-66
2023/01/26 07:58:35;;;;;;;31.58;13.50;;;;;;;-3.78;100.00;101612.38;5092607;28;20044;-66
2023/01/26 08:01:06;;;;;;;29.45;13.55;;;;;;;-3.83;100.00;101615.16;5093835;28;20058;-65
2023/01/26 08:03:33;;;;;;;21.70;9.80;;;;;;;-3.82;100.00;101624.72;5094859;28;20043;-65
2023/01/26 08:05:59;;;;;;;34.10;14.35;;;;;;;-3.78;100.00;101621.09;5093828;28;20136;-67
2023/01/26 08:08:27;;;;;;;28.48;12.95;;;;;;;-3.73;100.00;101618.34;5094723;28;20063;-67
2023/01/26 08:11:00;;;;;;;28.58;13.57;;;;;;;-3.75;100.00;101632.41;5093755;28;20402;-67
2023/01/26 08:13:28;;;;;;;33.50;15.93;;;;;;;-3.86;100.00;101630.09;5092375;28;20044;-67
2023/01/26 08:16:08;;;;;;;36.25;15.77;;;;;;;-3.82;100.00;101629.13;5094648;28;20054;-67
2023/01/26 08:18:35;;;;;;;38.10;19.60;;;;;;;-3.83;100.00;101630.88;5093591;28;20056;-67
2023/01/26 08:21:02;;;;;;;40.92;18.38;;;;;;;-3.85;100.00;101639.69;5094944;28;20052;-67
2023/01/26 08:23:29;;;;;;;40.00;14.88;;;;;;;-3.77;100.00;101640.31;5094831;28;20383;-67
2023/01/26 08:26:04;;;;;;;32.20;14.52;;;;;;;-3.79;100.00;101634.28;5094096;28;20146;-67
2023/01/26 08:28:31;;;;;;;28.63;13.70;;;;;;;-3.83;100.00;101637.84;5092123;28;20479;-67
2023/01/26 08:31:06;;;;;;;36.33;14.75;;;;;;;-3.88;100.00;101632.75;5091836;28;20052;-68
2023/01/26 08:33:33;;;;;;;31.23;13.40;;;;;;;-4.08;100.00;101630.72;5092550;28;20101;-68
2023/01/26 08:36:01;;;;;;;26.63;12.77;;;;;;;-3.99;100.00;101632.22;5091867;28;20071;-68
2023/01/26 08:38:32;;;;;;;26.45;12.75;;;;;;;-3.92;100.00;101632.91;5092394;28;20048;-68
2023/01/26 08:40:59;;;;;;;27.90;13.75;;;;;;;-3.99;100.00;101621.75;5092717;28;20415;-65
2023/01/26 08:43:26;;;;;;;31.17;13.77;;;;;;;-3.99;100.00;101627.00;5091533;28;20036;-66
2023/01/26 08:45:53;;;;;;;30.60;13.73;;;;;;;-3.88;100.00;101622.28;5091896;28;20505;-68
2023/01/26 08:48:20;;;;;;;31.38;12.93;;;;;;;-3.81;100.00;101618.56;5092416;28;20074;-66
2023/01/26 08:50:46;;;;;;;27.58;12.95;;;;;;;-3.89;100.00;101617.09;5092952;28;20054;-67
2023/01/26 08:53:13;;;;;;;31.08;14.15;;;;;;;-3.86;100.00;101620.47;5092543;28;20040;-68
2023/01/26 08:55:39;;;;;;;30.67;13.65;;;;;;;-3.82;100.00;101618.63;5092254;28;20058;-68
2023/01/26 08:58:06;;;;;;;31.15;13.88;;;;;;;-3.77;100.00;101627.19;5092158;28;20048;-68
2023/01/26 09:00:33;;;;;;;30.92;14.25;;;;;;;-3.77;100.00;101619.34;5090944;28;20214;-67
2023/01/26 09:03:04;;;;;;;28.58;13.85;;;;;;;-3.77;100.00;101630.69;5091175;28;20525;-67
2023/01/26 09:05:34;;;;;;;27.05;13.27;;;;;;;-3.87;100.00;101631.84;5092141;28;20476;-68
2023/01/26 09:08:01;;;;;;;25.35;13.30;;;;;;;-3.81;100.00;101631.69;5091861;28;20048;-68
2023/01/26 09:10:28;;;;;;;24.95;13.13;;;;;;;-3.73;100.00;101627.97;5091193;28;20063;-68
2023/01/26 09:12:56;;;;;;;24.40;13.30;;;;;;;-3.78;100.00;101630.72;5090641;28;20487;-68
2023/01/26 09:15:23;;;;;;;25.83;12.60;;;;;;;-3.89;100.00;101633.69;5091791;28;20421;-68
2023/01/26 09:17:50;;;;;;;24.63;13.77;;;;;;;-3.87;100.00;101638.88;5091494;28;20052;-68
2023/01/26 09:20:17;;;;;;;24.35;12.73;;;;;;;-4.03;100.00;101644.56;5091785;28;20054;-68
2023/01/26 09:22:44;;;;;;;23.27;12.57;;;;;;;-3.83;100.00;101645.72;5092161;28;20044;-67
2023/01/26 09:25:10;;;;;;;26.60;12.82;;;;;;;-3.78;100.00;101639.47;5091275;28;20040;-66
2023/01/26 09:27:37;;;;;;;21.67;12.23;;;;;;;-3.81;100.00;101638.69;5092100;28;21241;-66
2023/01/26 09:30:06;;;;;;;33.13;14.80;;;;;;;-3.78;100.00;101647.31;5092726;28;20051;-66
2023/01/26 09:32:32;;;;;;;35.17;13.30;;;;;;;-3.84;100.00;101639.63;5093640;28;20044;-66
2023/01/26 09:34:59;;;;;;;21.70;11.30;;;;;;;-3.97;100.00;101640.88;5092665;28;20079;-67
2023/01/26 09:37:26;;;;;;;24.23;11.18;;;;;;;-3.93;100.00;101649.53;5093287;28;20123;-67
2023/01/26 09:39:52;;;;;;;20.83;11.55;;;;;;;-3.89;100.00;101641.53;5093632;28;20059;-67
2023/01/26 09:42:41;;;;;;;22.17;11.40;;;;;;;-3.81;100.00;101636.06;5093117;28;20134;-68
2023/01/26 09:45:10;;;;;;;27.73;11.98;;;;;;;-3.75;100.00;101640.28;5093002;28;20415;-67
2023/01/26 09:48:16;;;;;;;33.03;12.68;;;;;;;-3.88;100.00;101645.88;5092479;28;20097;-67
2023/01/26 09:51:22;;;;;;;21.10;11.85;;;;;;;-3.82;100.00;101647.47;5093310;28;20040;-67
2023/01/26 09:53:57;;;;;;;24.70;11.57;;;;;;;-3.71;100.00;101641.91;5091432;28;20059;-68
2023/01/26 09:56:29;;;;;;;24.25;10.95;;;;;;;-3.88;100.00;101632.75;5092656;28;20131;-67
2023/01/26 09:59:06;;;;;;;19.10;10.13;;;;;;;-3.91;100.00;101635.47;5091547;28;20076;-65
2023/01/26 10:01:50;;;;;;;36.55;10.68;;;;;;;-3.86;100.00;101632.69;5092349;28;20039;-66
2023/01/26 10:04:35;;;;;;;21.23;10.18;;;;;;;-3.79;100.00;101632.50;5092039;28;20065;-66
2023/01/26 10:07:08;;;;;;;27.80;12.15;;;;;;;-3.95;100.00;101639.09;5091968;28;20815;-65
2023/01/26 10:09:36;;;;;;;25.30;11.27;;;;;;;-3.81;100.00;101636.91;5091603;28;20127;-66
2023/01/26 10:12:07;;;;;;;25.75;11.45;;;;;;;-3.87;100.00;101631.00;5092374;28;20036;-67
2023/01/26 10:14:39;;;;;;;31.98;12.27;;;;;;;-3.88;100.00;101631.91;5092980;28;20132;-65
2023/01/26 10:17:16;;;;;;;22.45;11.73;;;;;;;-3.84;100.00;101625.66;5091985;28;20047;-66
2023/01/26 10:19:49;;;;;;;24.33;12.88;;;;;;;-4.09;100.00;101625.53;5092080;28;20054;-66
2023/01/26 10:22:28;;;;;;;31.77;14.70;;;;;;;-3.94;100.00;101619.84;5089027;28;20040;-66
2023/01/26 10:24:56;;;;;;;28.23;13.98;;;;;;;-3.97;100.00;101619.06;5090458;28;20055;-66
2023/01/26 10:27:22;;;;;;;26.15;13.70;;;;;;;-3.94;100.00;101611.97;5092115;28;20134;-67
2023/01/26 10:29:49;;;;;;;26.40;14.05;;;;;;;-4.08;100.00;101611.50;5080288;28;20411;-67
2023/01/26 10:32:17;;;;;;;28.85;13.57;;;;;;;-3.93;100.00;101605.84;5091355;28;20044;-68
2023/01/26 10:34:48;;;;;;;32.65;14.85;;;;;;;-3.84;100.00;101604.69;5092118;28;20473;-67
2023/01/26 10:37:25;;;;;;;25.23;13.13;;;;;;;-3.79;100.00;101606.28;5092140;28;20202;-66
2023/01/26 10:40:03;;;;;;;27.17;13.20;;;;;;;-3.87;100.00;101592.53;5091137;28;20043;-68
2023/01/26 10:42:32;;;;;;;28.60;14.30;;;;;;;-3.78;100.00;101587.00;5091787;28;20126;-68
2023/01/26 10:45:01;;;;;;;31.50;14.60;;;;;;;-3.82;100.00;101579.31;5092233;28;20052;-66
2023/01/26 10:47:27;;;;;;;32.13;14.95;;;;;;;-3.84;100.00;101578.47;5092195;28;20130;-67
2023/01/26 10:50:21;;;;;;;49.15;15.02;;;;;;;-3.78;100.00;101573.91;5088431;28;20047;-67
2023/01/26 10:53:02;;;;;;;33.45;14.48;;;;;;;-3.79;100.00;101572.19;5088110;28;20054;-66
2023/01/26 10:55:31;;;;;;;28.20;14.50;;;;;;;-3.73;100.00;101570.28;5090924;28;20419;-67
2023/01/26 10:57:58;;;;;;;36.53;15.05;;;;;;;-3.74;100.00;101558.09;5091488;28;20052;-66
2023/01/26 11:00:31;;;;;;;33.15;15.43;;;;;;;-3.82;100.00;101564.44;5092426;28;20072;-66
2023/01/26 11:03:16;;;;;;;28.63;15.13;;;;;;;-3.80;100.00;101557.34;5091860;28;20048;-67
2023/01/26 11:05:46;;;;;;;32.15;14.70;;;;;;;-3.74;100.00;101563.31;5092327;28;20048;-67
2023/01/26 11:08:36;;;;;;;29.33;15.63;;;;;;;-3.62;100.00;101569.06;5092045;28;20047;-67
2023/01/26 11:11:06;;;;;;;33.78;16.75;;;;;;;-3.81;100.00;101568.75;5091468;28;20071;-67
2023/01/26 11:13:33;;;;;;;34.40;15.70;;;;;;;-3.81;100.00;101567.91;5091883;28;20055;-65
2023/01/26 11:16:05;;;;;;;32.85;15.90;;;;;;;-3.84;100.00;101574.09;5091896;28;20126;-65
2023/01/26 11:18:53;;;;;;;42.03;16.33;;;;;;;-3.79;100.00;101569.56;5091627;28;20048;-66
2023/01/26 11:21:39;;;;;;;31.15;15.27;;;;;;;-3.87;100.00;101568.94;5091463;28;20533;-66
2023/01/26 11:24:36;;;;;;;31.23;15.63;;;;;;;-3.79;100.00;101566.94;5092036;28;20075;-65
2023/01/26 11:27:34;;;;;;;36.80;16.83;;;;;;;-3.77;100.00;101557.25;5090887;28;20423;-66
2023/01/26 11:30:28;;;;;;;34.15;16.27;;;;;;;-3.77;100.00;101559.88;5091261;28;20063;-66
2023/01/26 11:33:16;;;;;;;34.25;16.48;;;;;;;-3.82;100.00;101548.69;5091820;28;20109;-67
2023/01/26 11:36:16;;;;;;;38.47;17.45;;;;;;;-3.69;100.00;101548.28;5095351;28;20399;-65
2023/01/26 11:38:54;;;;;;;37.47;16.50;;;;;;;-3.80;100.00;101549.47;5094617;28;20048;-66
2023/01/26 11:41:59;;;;;;;37.80;17.25;;;;;;;-3.72;100.00;101543.13;5094676;28;20127;-68
2023/01/26 11:44:55;;;;;;;36.20;16.40;;;;;;;-3.74;100.00;101540.56;5095047;28;20044;-65
2023/01/26 11:47:46;;;;;;;33.53;17.08;;;;;;;-3.66;100.00;101537.72;5080325;28;20050;-65
2023/01/26 11:50:37;;;;;;;33.25;16.13;;;;;;;-3.82;100.00;101540.81;5095335;28;20040;-65
2023/01/26 11:53:04;;;;;;;;;;;;;;;-3.80;100.00;101539.00;5095188;28;20078;-66
2023/01/26 11:55:49;;;;;;;26.85;13.10;;;;;;;-3.89;100.00;101531.44;5076123;28;20318;-67
2023/01/26 11:58:28;;;;;;;28.90;13.65;;;;;;;-3.84;100.00;101531.28;5095214;28;20369;-67
2023/01/26 12:00:58;;;;;;;30.23;14.70;;;;;;;-3.87;100.00;101528.75;5094849;28;20510;-68
2023/01/26 12:03:43;;;;;;;33.65;14.65;;;;;;;-3.92;100.00;101528.06;5093090;28;20036;-67